sensor_id;sensor_type;location;lat;lon;timestamp;temperature;humidity
78028;DHT22;67235;45.638;11.714;2023-03-16T00:00:19;7.10;67.90
78028;DHT22;67235;45.638;11.714;2023-03-16T00:02:46;7.10;68.90
78028;DHT22;67235;45.638;11.714;2023-03-16T00:05:12;7.00;68.30
78028;DHT22;67235;45.638;11.714;2023-03-16T00:07:39;7.00;66.20
78028;DHT22;67235;45.638;11.714;2023-03-16T00:10:12;7.10;67.20
78028;DHT22;67235;45.638;11.714;2023-03-16T00:12:41;7.00;67.70
78028;DHT22;67235;45.638;11.714;2023-03-16T00:15:12;7.20;67.10
78028;DHT22;67235;45.638;11.714;2023-03-16T00:17:40;7.10;66.30
78028;DHT22;67235;45.638;11.714;2023-03-16T00:20:26;7.20;63.60
78028;DHT22;67235;45.638;11.714;2023-03-16T00:22:52;7.40;64.90
78028;DHT22;67235;45.638;11.714;2023-03-16T00:25:36;7.50;65.70
78028;DHT22;67235;45.638;11.714;2023-03-16T00:28:14;7.20;66.70
78028;DHT22;67235;45.638;11.714;2023-03-16T00:30:39;7.00;67.30
78028;DHT22;67235;45.638;11.714;2023-03-16T00:33:09;7.20;66.70
78028;DHT22;67235;45.638;11.714;2023-03-16T00:35:37;7.30;66.30
78028;DHT22;67235;45.638;11.714;2023-03-16T00:38:03;7.20;65.90
78028;DHT22;67235;45.638;11.714;2023-03-16T00:40:31;7.30;65.40
78028;DHT22;67235;45.638;11.714;2023-03-16T00:42:59;7.40;65.50
78028;DHT22;67235;45.638;11.714;2023-03-16T00:45:36;7.50;66.40
78028;DHT22;67235;45.638;11.714;2023-03-16T00:48:03;7.30;66.00
78028;DHT22;67235;45.638;11.714;2023-03-16T00:50:30;7.40;66.50
78028;DHT22;67235;45.638;11.714;2023-03-16T00:52:57;7.40;65.60
78028;DHT22;67235;45.638;11.714;2023-03-16T00:55:29;7.20;65.10
78028;DHT22;67235;45.638;11.714;2023-03-16T00:57:58;7.40;64.80
78028;DHT22;67235;45.638;11.714;2023-03-16T01:00:29;7.30;65.30
78028;DHT22;67235;45.638;11.714;2023-03-16T01:03:01;7.40;65.60
78028;DHT22;67235;45.638;11.714;2023-03-16T01:05:26;7.50;66.40
78028;DHT22;67235;45.638;11.714;2023-03-16T01:07:56;7.40;64.90
78028;DHT22;67235;45.638;11.714;2023-03-16T01:10:21;7.20;64.80
78028;DHT22;67235;45.638;11.714;2023-03-16T01:12:47;7.20;64.70
78028;DHT22;67235;45.638;11.714;2023-03-16T01:15:14;7.10;64.90
78028;DHT22;67235;45.638;11.714;2023-03-16T01:17:41;7.00;64.70
78028;DHT22;67235;45.638;11.714;2023-03-16T01:20:10;6.70;64.50
78028;DHT22;67235;45.638;11.714;2023-03-16T01:22:44;6.80;66.00
78028;DHT22;67235;45.638;11.714;2023-03-16T01:25:13;6.80;65.20
78028;DHT22;67235;45.638;11.714;2023-03-16T01:27:40;6.70;65.50
78028;DHT22;67235;45.638;11.714;2023-03-16T01:30:08;6.50;66.30
78028;DHT22;67235;45.638;11.714;2023-03-16T01:32:37;6.50;66.30
78028;DHT22;67235;45.638;11.714;2023-03-16T01:35:06;6.40;65.40
78028;DHT22;67235;45.638;11.714;2023-03-16T01:37:32;6.40;65.20
78028;DHT22;67235;45.638;11.714;2023-03-16T01:39:59;6.50;65.10
78028;DHT22;67235;45.638;11.714;2023-03-16T01:42:27;6.30;65.50
78028;DHT22;67235;45.638;11.714;2023-03-16T01:44:59;6.30;64.80
78028;DHT22;67235;45.638;11.714;2023-03-16T01:47:37;6.20;64.70
78028;DHT22;67235;45.638;11.714;2023-03-16T01:50:08;6.20;64.00
78028;DHT22;67235;45.638;11.714;2023-03-16T01:52:36;6.20;63.50
78028;DHT22;67235;45.638;11.714;2023-03-16T01:55:07;6.20;64.40
78028;DHT22;67235;45.638;11.714;2023-03-16T01:57:37;6.40;64.20
78028;DHT22;67235;45.638;11.714;2023-03-16T02:00:27;6.40;64.90
78028;DHT22;67235;45.638;11.714;2023-03-16T02:03:04;6.10;65.10
78028;DHT22;67235;45.638;11.714;2023-03-16T02:08:36;6.10;64.30
78028;DHT22;67235;45.638;11.714;2023-03-16T02:11:08;6.10;65.20
78028;DHT22;67235;45.638;11.714;2023-03-16T02:13:35;6.00;65.40
78028;DHT22;67235;45.638;11.714;2023-03-16T02:16:06;6.10;65.90
78028;DHT22;67235;45.638;11.714;2023-03-16T02:18:35;6.10;66.30
78028;DHT22;67235;45.638;11.714;2023-03-16T02:24:21;5.90;66.40
78028;DHT22;67235;45.638;11.714;2023-03-16T02:27:25;6.10;65.70
78028;DHT22;67235;45.638;11.714;2023-03-16T02:30:10;6.00;65.20
78028;DHT22;67235;45.638;11.714;2023-03-16T02:32:40;5.90;65.40
78028;DHT22;67235;45.638;11.714;2023-03-16T02:35:11;5.60;65.50
78028;DHT22;67235;45.638;11.714;2023-03-16T02:37:38;5.70;65.50
78028;DHT22;67235;45.638;11.714;2023-03-16T02:40:21;5.90;66.00
78028;DHT22;67235;45.638;11.714;2023-03-16T02:43:03;6.00;65.00
78028;DHT22;67235;45.638;11.714;2023-03-16T02:45:54;5.90;65.60
78028;DHT22;67235;45.638;11.714;2023-03-16T02:48:57;6.00;66.40
78028;DHT22;67235;45.638;11.714;2023-03-16T02:51:37;5.90;65.90
78028;DHT22;67235;45.638;11.714;2023-03-16T02:54:04;5.70;66.40
78028;DHT22;67235;45.638;11.714;2023-03-16T02:56:31;5.70;66.70
78028;DHT22;67235;45.638;11.714;2023-03-16T02:58:58;5.80;66.10
78028;DHT22;67235;45.638;11.714;2023-03-16T03:01:26;5.90;65.60
78028;DHT22;67235;45.638;11.714;2023-03-16T03:03:53;5.60;66.00
78028;DHT22;67235;45.638;11.714;2023-03-16T03:06:26;5.80;65.30
78028;DHT22;67235;45.638;11.714;2023-03-16T03:08:57;5.70;65.20
78028;DHT22;67235;45.638;11.714;2023-03-16T03:11:24;5.70;65.10
78028;DHT22;67235;45.638;11.714;2023-03-16T03:13:53;5.60;65.10
78028;DHT22;67235;45.638;11.714;2023-03-16T03:16:20;5.60;65.90
78028;DHT22;67235;45.638;11.714;2023-03-16T03:19:06;5.60;65.60
78028;DHT22;67235;45.638;11.714;2023-03-16T03:21:31;5.40;65.30
78028;DHT22;67235;45.638;11.714;2023-03-16T03:23:58;5.40;65.40
78028;DHT22;67235;45.638;11.714;2023-03-16T03:26:26;5.40;65.60
78028;DHT22;67235;45.638;11.714;2023-03-16T03:28:51;5.40;65.90
78028;DHT22;67235;45.638;11.714;2023-03-16T03:31:21;5.10;66.10
78028;DHT22;67235;45.638;11.714;2023-03-16T03:33:48;5.30;66.20
78028;DHT22;67235;45.638;11.714;2023-03-16T03:36:14;5.20;66.30
78028;DHT22;67235;45.638;11.714;2023-03-16T03:38:43;5.20;66.90
78028;DHT22;67235;45.638;11.714;2023-03-16T03:41:30;4.90;66.80
78028;DHT22;67235;45.638;11.714;2023-03-16T03:43:58;5.10;66.70
78028;DHT22;67235;45.638;11.714;2023-03-16T03:46:26;4.90;67.20
78028;DHT22;67235;45.638;11.714;2023-03-16T03:48:52;4.80;67.10
78028;DHT22;67235;45.638;11.714;2023-03-16T03:51:18;4.60;67.30
78028;DHT22;67235;45.638;11.714;2023-03-16T03:53:44;4.70;68.20
78028;DHT22;67235;45.638;11.714;2023-03-16T03:56:10;4.50;68.10
78028;DHT22;67235;45.638;11.714;2023-03-16T03:58:36;4.50;68.20
78028;DHT22;67235;45.638;11.714;2023-03-16T04:01:01;4.50;69.00
78028;DHT22;67235;45.638;11.714;2023-03-16T04:03:32;4.20;69.40
78028;DHT22;67235;45.638;11.714;2023-03-16T04:05:58;4.60;68.90
78028;DHT22;67235;45.638;11.714;2023-03-16T04:08:25;4.80;68.50
78028;DHT22;67235;45.638;11.714;2023-03-16T04:10:52;4.70;67.90
78028;DHT22;67235;45.638;11.714;2023-03-16T04:13:22;4.50;68.20
78028;DHT22;67235;45.638;11.714;2023-03-16T04:15:48;4.60;68.20
78028;DHT22;67235;45.638;11.714;2023-03-16T04:18:18;4.40;68.40
78028;DHT22;67235;45.638;11.714;2023-03-16T04:20:44;4.60;68.40
78028;DHT22;67235;45.638;11.714;2023-03-16T04:23:11;4.80;68.50
78028;DHT22;67235;45.638;11.714;2023-03-16T04:25:39;4.70;68.30
78028;DHT22;67235;45.638;11.714;2023-03-16T04:28:05;4.50;68.30
78028;DHT22;67235;45.638;11.714;2023-03-16T04:30:30;4.50;67.90
78028;DHT22;67235;45.638;11.714;2023-03-16T04:32:56;4.30;67.70
78028;DHT22;67235;45.638;11.714;2023-03-16T04:35:23;4.30;68.00
78028;DHT22;67235;45.638;11.714;2023-03-16T04:37:49;4.40;67.90
78028;DHT22;67235;45.638;11.714;2023-03-16T04:40:15;4.20;67.80
78028;DHT22;67235;45.638;11.714;2023-03-16T04:42:42;4.60;67.60
78028;DHT22;67235;45.638;11.714;2023-03-16T04:45:09;4.40;67.10
78028;DHT22;67235;45.638;11.714;2023-03-16T04:47:36;4.50;67.10
78028;DHT22;67235;45.638;11.714;2023-03-16T04:50:05;4.50;66.70
78028;DHT22;67235;45.638;11.714;2023-03-16T04:52:34;4.40;67.30
78028;DHT22;67235;45.638;11.714;2023-03-16T04:54:59;4.30;67.20
78028;DHT22;67235;45.638;11.714;2023-03-16T04:57:25;4.10;67.70
78028;DHT22;67235;45.638;11.714;2023-03-16T04:59:54;4.10;67.40
78028;DHT22;67235;45.638;11.714;2023-03-16T05:02:20;4.10;67.50
78028;DHT22;67235;45.638;11.714;2023-03-16T05:04:46;4.00;67.30
78028;DHT22;67235;45.638;11.714;2023-03-16T05:07:13;4.10;67.20
78028;DHT22;67235;45.638;11.714;2023-03-16T05:09:39;4.10;67.80
78028;DHT22;67235;45.638;11.714;2023-03-16T05:12:05;4.20;66.80
78028;DHT22;67235;45.638;11.714;2023-03-16T05:14:32;4.10;66.90
78028;DHT22;67235;45.638;11.714;2023-03-16T05:17:01;4.20;66.60
78028;DHT22;67235;45.638;11.714;2023-03-16T05:19:28;4.30;66.70
78028;DHT22;67235;45.638;11.714;2023-03-16T05:21:55;4.20;67.20
78028;DHT22;67235;45.638;11.714;2023-03-16T05:24:25;4.20;67.30
78028;DHT22;67235;45.638;11.714;2023-03-16T05:26:51;4.00;67.00
78028;DHT22;67235;45.638;11.714;2023-03-16T05:29:16;4.20;67.10
78028;DHT22;67235;45.638;11.714;2023-03-16T05:31:42;4.10;66.90
78028;DHT22;67235;45.638;11.714;2023-03-16T05:34:11;4.10;67.40
78028;DHT22;67235;45.638;11.714;2023-03-16T05:36:38;4.40;67.60
78028;DHT22;67235;45.638;11.714;2023-03-16T05:39:07;4.80;66.80
78028;DHT22;67235;45.638;11.714;2023-03-16T05:41:35;5.50;65.80
78028;DHT22;67235;45.638;11.714;2023-03-16T05:44:05;6.20;64.60
78028;DHT22;67235;45.638;11.714;2023-03-16T05:46:35;7.10;64.00
78028;DHT22;67235;45.638;11.714;2023-03-16T05:49:02;7.80;63.30
78028;DHT22;67235;45.638;11.714;2023-03-16T05:51:28;8.70;62.70
78028;DHT22;67235;45.638;11.714;2023-03-16T05:53:58;9.60;61.80
78028;DHT22;67235;45.638;11.714;2023-03-16T05:56:31;9.60;42.80
78028;DHT22;67235;45.638;11.714;2023-03-16T05:58:59;9.50;40.80
78028;DHT22;67235;45.638;11.714;2023-03-16T06:01:30;10.00;41.50
78028;DHT22;67235;45.638;11.714;2023-03-16T06:03:59;10.40;40.30
78028;DHT22;67235;45.638;11.714;2023-03-16T06:06:28;10.60;41.10
78028;DHT22;67235;45.638;11.714;2023-03-16T06:08:54;10.40;41.70
78028;DHT22;67235;45.638;11.714;2023-03-16T06:11:41;10.60;41.00
78028;DHT22;67235;45.638;11.714;2023-03-16T06:14:09;10.70;40.40
78028;DHT22;67235;45.638;11.714;2023-03-16T06:16:36;10.60;44.00
78028;DHT22;67235;45.638;11.714;2023-03-16T06:19:02;10.50;45.10
78028;DHT22;67235;45.638;11.714;2023-03-16T06:21:28;10.90;43.80
78028;DHT22;67235;45.638;11.714;2023-03-16T06:23:54;11.20;42.00
78028;DHT22;67235;45.638;11.714;2023-03-16T06:26:20;12.30;39.60
78028;DHT22;67235;45.638;11.714;2023-03-16T06:28:47;12.70;38.70
78028;DHT22;67235;45.638;11.714;2023-03-16T06:31:13;12.70;36.60
78028;DHT22;67235;45.638;11.714;2023-03-16T06:33:39;13.20;36.80
78028;DHT22;67235;45.638;11.714;2023-03-16T06:36:06;12.50;37.00
78028;DHT22;67235;45.638;11.714;2023-03-16T06:38:32;11.90;38.00
78028;DHT22;67235;45.638;11.714;2023-03-16T06:40:58;12.20;37.50
78028;DHT22;67235;45.638;11.714;2023-03-16T06:43:24;12.00;38.30
78028;DHT22;67235;45.638;11.714;2023-03-16T06:45:50;12.40;37.00
78028;DHT22;67235;45.638;11.714;2023-03-16T06:48:16;12.40;39.00
78028;DHT22;67235;45.638;11.714;2023-03-16T06:50:44;13.00;35.90
78028;DHT22;67235;45.638;11.714;2023-03-16T06:53:11;13.20;36.50
78028;DHT22;67235;45.638;11.714;2023-03-16T06:55:36;12.80;37.00
78028;DHT22;67235;45.638;11.714;2023-03-16T06:58:02;12.00;38.60
78028;DHT22;67235;45.638;11.714;2023-03-16T07:00:28;12.50;38.60
78028;DHT22;67235;45.638;11.714;2023-03-16T07:02:55;12.40;37.00
78028;DHT22;67235;45.638;11.714;2023-03-16T07:05:22;12.80;35.00
78028;DHT22;67235;45.638;11.714;2023-03-16T07:07:49;13.20;35.00
78028;DHT22;67235;45.638;11.714;2023-03-16T07:10:16;13.70;35.30
78028;DHT22;67235;45.638;11.714;2023-03-16T07:12:43;13.90;31.00
78028;DHT22;67235;45.638;11.714;2023-03-16T07:15:09;14.40;29.90
78028;DHT22;67235;45.638;11.714;2023-03-16T07:17:38;14.40;30.40
78028;DHT22;67235;45.638;11.714;2023-03-16T07:20:05;14.70;29.60
78028;DHT22;67235;45.638;11.714;2023-03-16T07:22:40;15.10;28.80
78028;DHT22;67235;45.638;11.714;2023-03-16T07:25:13;16.00;24.40
78028;DHT22;67235;45.638;11.714;2023-03-16T07:27:42;16.80;24.10
78028;DHT22;67235;45.638;11.714;2023-03-16T07:30:17;17.30;23.60
78028;DHT22;67235;45.638;11.714;2023-03-16T07:32:47;18.70;20.80
78028;DHT22;67235;45.638;11.714;2023-03-16T07:35:12;20.90;18.30
78028;DHT22;67235;45.638;11.714;2023-03-16T07:37:38;21.70;16.50
78028;DHT22;67235;45.638;11.714;2023-03-16T07:40:05;22.10;17.10
78028;DHT22;67235;45.638;11.714;2023-03-16T07:42:34;23.00;16.00
78028;DHT22;67235;45.638;11.714;2023-03-16T07:45:00;23.40;16.30
78028;DHT22;67235;45.638;11.714;2023-03-16T07:47:26;24.10;14.10
78028;DHT22;67235;45.638;11.714;2023-03-16T07:49:53;23.70;15.50
78028;DHT22;67235;45.638;11.714;2023-03-16T07:52:18;24.10;14.80
78028;DHT22;67235;45.638;11.714;2023-03-16T07:54:44;24.50;13.30
78028;DHT22;67235;45.638;11.714;2023-03-16T07:57:10;25.80;12.20
78028;DHT22;67235;45.638;11.714;2023-03-16T07:59:36;25.60;10.20
78028;DHT22;67235;45.638;11.714;2023-03-16T08:02:03;25.30;11.80
78028;DHT22;67235;45.638;11.714;2023-03-16T08:04:29;25.60;11.20
78028;DHT22;67235;45.638;11.714;2023-03-16T08:06:56;25.50;10.00
78028;DHT22;67235;45.638;11.714;2023-03-16T08:09:29;25.80;9.70
78028;DHT22;67235;45.638;11.714;2023-03-16T08:12:03;25.20;10.00
78028;DHT22;67235;45.638;11.714;2023-03-16T08:14:30;24.90;11.30
78028;DHT22;67235;45.638;11.714;2023-03-16T08:17:00;24.10;12.00
78028;DHT22;67235;45.638;11.714;2023-03-16T08:19:27;24.40;12.50
78028;DHT22;67235;45.638;11.714;2023-03-16T08:21:53;25.00;12.50
78028;DHT22;67235;45.638;11.714;2023-03-16T08:24:19;25.30;12.10
78028;DHT22;67235;45.638;11.714;2023-03-16T08:26:45;25.30;11.60
78028;DHT22;67235;45.638;11.714;2023-03-16T08:29:12;25.70;11.60
78028;DHT22;67235;45.638;11.714;2023-03-16T08:31:38;25.60;12.50
78028;DHT22;67235;45.638;11.714;2023-03-16T08:34:04;25.50;12.40
78028;DHT22;67235;45.638;11.714;2023-03-16T08:36:30;24.90;13.60
78028;DHT22;67235;45.638;11.714;2023-03-16T08:38:57;25.10;14.20
78028;DHT22;67235;45.638;11.714;2023-03-16T08:41:23;25.80;11.20
78028;DHT22;67235;45.638;11.714;2023-03-16T08:43:49;25.30;12.60
78028;DHT22;67235;45.638;11.714;2023-03-16T08:46:16;24.00;15.20
78028;DHT22;67235;45.638;11.714;2023-03-16T08:48:44;23.40;16.50
78028;DHT22;67235;45.638;11.714;2023-03-16T08:51:19;23.20;15.80
78028;DHT22;67235;45.638;11.714;2023-03-16T08:53:57;23.50;14.50
78028;DHT22;67235;45.638;11.714;2023-03-16T08:56:27;24.10;16.30
78028;DHT22;67235;45.638;11.714;2023-03-16T08:58:55;25.20;12.60
78028;DHT22;67235;45.638;11.714;2023-03-16T09:01:22;25.00;11.50
78028;DHT22;67235;45.638;11.714;2023-03-16T09:03:49;24.50;13.70
78028;DHT22;67235;45.638;11.714;2023-03-16T09:06:17;23.60;13.60
78028;DHT22;67235;45.638;11.714;2023-03-16T09:08:43;25.30;12.30
78028;DHT22;67235;45.638;11.714;2023-03-16T09:11:12;25.70;10.30
78028;DHT22;67235;45.638;11.714;2023-03-16T09:13:39;25.30;11.20
78028;DHT22;67235;45.638;11.714;2023-03-16T09:16:09;24.40;11.70
78028;DHT22;67235;45.638;11.714;2023-03-16T09:18:36;23.90;10.40
78028;DHT22;67235;45.638;11.714;2023-03-16T09:21:05;24.40;10.80
78028;DHT22;67235;45.638;11.714;2023-03-16T09:23:32;23.30;10.40
78028;DHT22;67235;45.638;11.714;2023-03-16T09:26:00;23.50;7.30
78028;DHT22;67235;45.638;11.714;2023-03-16T09:28:29;23.60;6.10
78028;DHT22;67235;45.638;11.714;2023-03-16T09:30:59;23.80;10.40
78028;DHT22;67235;45.638;11.714;2023-03-16T09:33:26;22.10;11.00
78028;DHT22;67235;45.638;11.714;2023-03-16T09:35:54;20.90;9.90
78028;DHT22;67235;45.638;11.714;2023-03-16T09:38:23;21.40;11.60
78028;DHT22;67235;45.638;11.714;2023-03-16T09:41:07;22.30;11.10
78028;DHT22;67235;45.638;11.714;2023-03-16T09:46:31;21.40;8.10
78028;DHT22;67235;45.638;11.714;2023-03-16T09:48:58;21.50;11.20
78028;DHT22;67235;45.638;11.714;2023-03-16T09:51:36;22.20;8.90
78028;DHT22;67235;45.638;11.714;2023-03-16T09:54:10;22.10;9.50
78028;DHT22;67235;45.638;11.714;2023-03-16T09:56:42;21.50;8.90
78028;DHT22;67235;45.638;11.714;2023-03-16T09:59:13;21.30;9.40
78028;DHT22;67235;45.638;11.714;2023-03-16T10:02:30;21.00;12.40
78028;DHT22;67235;45.638;11.714;2023-03-16T10:05:13;22.50;8.60
78028;DHT22;67235;45.638;11.714;2023-03-16T10:08:14;22.90;8.10
78028;DHT22;67235;45.638;11.714;2023-03-16T10:11:04;22.20;12.50
78028;DHT22;67235;45.638;11.714;2023-03-16T10:19:16;22.90;10.20
78028;DHT22;67235;45.638;11.714;2023-03-16T10:21:44;22.70;10.10
78028;DHT22;67235;45.638;11.714;2023-03-16T10:24:40;22.90;11.40
78028;DHT22;67235;45.638;11.714;2023-03-16T10:27:19;22.00;12.50
78028;DHT22;67235;45.638;11.714;2023-03-16T10:29:47;22.80;10.00
78028;DHT22;67235;45.638;11.714;2023-03-16T10:32:16;22.80;11.60
78028;DHT22;67235;45.638;11.714;2023-03-16T10:34:53;22.10;10.00
78028;DHT22;67235;45.638;11.714;2023-03-16T10:37:23;21.00;13.90
78028;DHT22;67235;45.638;11.714;2023-03-16T10:39:50;21.60;13.10
78028;DHT22;67235;45.638;11.714;2023-03-16T10:42:18;21.60;11.50
78028;DHT22;67235;45.638;11.714;2023-03-16T10:44:45;21.50;12.20
78028;DHT22;67235;45.638;11.714;2023-03-16T10:47:27;21.80;12.30
78028;DHT22;67235;45.638;11.714;2023-03-16T10:49:53;21.70;12.10
78028;DHT22;67235;45.638;11.714;2023-03-16T10:54:58;21.50;13.70
78028;DHT22;67235;45.638;11.714;2023-03-16T10:57:26;21.40;11.90
78028;DHT22;67235;45.638;11.714;2023-03-16T11:00:11;21.40;14.50
78028;DHT22;67235;45.638;11.714;2023-03-16T11:02:39;22.00;14.10
78028;DHT22;67235;45.638;11.714;2023-03-16T11:05:26;21.10;16.20
78028;DHT22;67235;45.638;11.714;2023-03-16T11:08:17;21.10;15.70
78028;DHT22;67235;45.638;11.714;2023-03-16T11:10:46;20.80;16.40
78028;DHT22;67235;45.638;11.714;2023-03-16T11:13:19;20.20;13.50
78028;DHT22;67235;45.638;11.714;2023-03-16T11:15:55;20.60;17.50
78028;DHT22;67235;45.638;11.714;2023-03-16T11:21:07;20.20;14.50
78028;DHT22;67235;45.638;11.714;2023-03-16T11:23:40;19.20;19.60
78028;DHT22;67235;45.638;11.714;2023-03-16T11:26:20;19.20;17.20
78028;DHT22;67235;45.638;11.714;2023-03-16T11:29:40;19.60;18.30
78028;DHT22;67235;45.638;11.714;2023-03-16T11:31:41;19.70;15.60
78028;DHT22;67235;45.638;11.714;2023-03-16T11:34:15;19.90;18.60
78028;DHT22;67235;45.638;11.714;2023-03-16T11:36:51;19.80;16.40
78028;DHT22;67235;45.638;11.714;2023-03-16T11:39:32;19.50;15.10
78028;DHT22;67235;45.638;11.714;2023-03-16T11:44:54;18.90;16.80
78028;DHT22;67235;45.638;11.714;2023-03-16T11:56:16;20.20;17.70
78028;DHT22;67235;45.638;11.714;2023-03-16T12:06:56;18.90;15.30
78028;DHT22;67235;45.638;11.714;2023-03-16T12:12:04;19.50;15.50
78028;DHT22;67235;45.638;11.714;2023-03-16T12:14:42;20.00;14.50
78028;DHT22;67235;45.638;11.714;2023-03-16T12:17:18;20.00;15.60
78028;DHT22;67235;45.638;11.714;2023-03-16T12:19:52;18.90;17.70
78028;DHT22;67235;45.638;11.714;2023-03-16T12:22:22;18.90;11.90
78028;DHT22;67235;45.638;11.714;2023-03-16T12:24:50;19.00;15.80
78028;DHT22;67235;45.638;11.714;2023-03-16T12:27:20;18.50;17.30
78028;DHT22;67235;45.638;11.714;2023-03-16T12:30:01;18.30;17.10
78028;DHT22;67235;45.638;11.714;2023-03-16T12:32:37;18.50;15.30
78028;DHT22;67235;45.638;11.714;2023-03-16T12:37:49;18.90;15.50
78028;DHT22;67235;45.638;11.714;2023-03-16T12:43:16;19.80;15.60
78028;DHT22;67235;45.638;11.714;2023-03-16T12:45:51;20.50;17.10
78028;DHT22;67235;45.638;11.714;2023-03-16T12:48:36;20.30;15.70
78028;DHT22;67235;45.638;11.714;2023-03-16T12:51:03;20.00;16.30
78028;DHT22;67235;45.638;11.714;2023-03-16T12:56:05;19.70;16.10
78028;DHT22;67235;45.638;11.714;2023-03-16T12:58:33;19.90;14.90
78028;DHT22;67235;45.638;11.714;2023-03-16T13:01:03;20.10;12.30
78028;DHT22;67235;45.638;11.714;2023-03-16T13:03:34;19.70;17.00
78028;DHT22;67235;45.638;11.714;2023-03-16T13:06:01;19.40;15.10
78028;DHT22;67235;45.638;11.714;2023-03-16T13:08:43;19.70;15.00
78028;DHT22;67235;45.638;11.714;2023-03-16T13:11:12;19.00;19.70
78028;DHT22;67235;45.638;11.714;2023-03-16T13:16:32;18.60;16.80
78028;DHT22;67235;45.638;11.714;2023-03-16T13:19:16;18.40;16.50
78028;DHT22;67235;45.638;11.714;2023-03-16T13:21:44;18.70;15.80
78028;DHT22;67235;45.638;11.714;2023-03-16T13:27:00;19.10;14.70
78028;DHT22;67235;45.638;11.714;2023-03-16T13:29:38;18.90;18.10
78028;DHT22;67235;45.638;11.714;2023-03-16T13:32:18;18.40;17.70
78028;DHT22;67235;45.638;11.714;2023-03-16T13:34:51;18.10;19.40
78028;DHT22;67235;45.638;11.714;2023-03-16T13:37:21;18.10;21.10
78028;DHT22;67235;45.638;11.714;2023-03-16T13:39:56;18.10;18.80
78028;DHT22;67235;45.638;11.714;2023-03-16T13:42:35;17.90;20.10
78028;DHT22;67235;45.638;11.714;2023-03-16T13:45:15;17.90;20.40
78028;DHT22;67235;45.638;11.714;2023-03-16T13:47:54;17.60;20.20
78028;DHT22;67235;45.638;11.714;2023-03-16T13:50:21;17.50;20.30
78028;DHT22;67235;45.638;11.714;2023-03-16T13:56:04;17.60;18.20
78028;DHT22;67235;45.638;11.714;2023-03-16T13:58:34;17.60;19.00
78028;DHT22;67235;45.638;11.714;2023-03-16T14:01:03;18.10;18.40
78028;DHT22;67235;45.638;11.714;2023-03-16T14:03:37;18.00;18.80
78028;DHT22;67235;45.638;11.714;2023-03-16T14:06:05;18.00;20.00
78028;DHT22;67235;45.638;11.714;2023-03-16T14:08:39;18.20;17.50
78028;DHT22;67235;45.638;11.714;2023-03-16T14:11:09;18.50;17.10
78028;DHT22;67235;45.638;11.714;2023-03-16T14:13:36;18.70;17.80
78028;DHT22;67235;45.638;11.714;2023-03-16T14:16:16;18.60;18.90
78028;DHT22;67235;45.638;11.714;2023-03-16T14:18:54;17.90;19.00
78028;DHT22;67235;45.638;11.714;2023-03-16T14:21:24;18.20;17.40
78028;DHT22;67235;45.638;11.714;2023-03-16T14:23:53;18.40;16.10
78028;DHT22;67235;45.638;11.714;2023-03-16T14:26:21;18.10;19.80
78028;DHT22;67235;45.638;11.714;2023-03-16T14:29:03;17.80;18.70
78028;DHT22;67235;45.638;11.714;2023-03-16T14:31:36;17.70;19.10
78028;DHT22;67235;45.638;11.714;2023-03-16T14:34:06;17.80;21.40
78028;DHT22;67235;45.638;11.714;2023-03-16T14:36:44;17.50;23.00
78028;DHT22;67235;45.638;11.714;2023-03-16T14:39:19;17.60;18.60
78028;DHT22;67235;45.638;11.714;2023-03-16T14:41:49;17.30;20.80
78028;DHT22;67235;45.638;11.714;2023-03-16T14:44:28;17.30;20.50
78028;DHT22;67235;45.638;11.714;2023-03-16T14:47:00;17.10;21.90
78028;DHT22;67235;45.638;11.714;2023-03-16T14:49:36;17.00;19.70
78028;DHT22;67235;45.638;11.714;2023-03-16T14:52:14;17.10;21.80
78028;DHT22;67235;45.638;11.714;2023-03-16T14:54:45;17.10;20.00
78028;DHT22;67235;45.638;11.714;2023-03-16T14:57:17;17.30;22.00
78028;DHT22;67235;45.638;11.714;2023-03-16T14:59:44;17.10;20.70
78028;DHT22;67235;45.638;11.714;2023-03-16T15:02:17;17.00;21.30
78028;DHT22;67235;45.638;11.714;2023-03-16T15:04:44;16.90;21.10
78028;DHT22;67235;45.638;11.714;2023-03-16T15:07:31;16.80;22.80
78028;DHT22;67235;45.638;11.714;2023-03-16T15:10:26;16.80;23.90
78028;DHT22;67235;45.638;11.714;2023-03-16T15:12:54;16.80;21.60
78028;DHT22;67235;45.638;11.714;2023-03-16T15:15:34;16.80;23.30
78028;DHT22;67235;45.638;11.714;2023-03-16T15:18:00;16.80;24.20
78028;DHT22;67235;45.638;11.714;2023-03-16T15:20:31;16.70;22.10
78028;DHT22;67235;45.638;11.714;2023-03-16T15:23:01;16.30;23.90
78028;DHT22;67235;45.638;11.714;2023-03-16T15:25:38;16.00;24.50
78028;DHT22;67235;45.638;11.714;2023-03-16T15:30:37;16.20;21.50
78028;DHT22;67235;45.638;11.714;2023-03-16T15:33:03;16.30;23.00
78028;DHT22;67235;45.638;11.714;2023-03-16T15:35:32;16.30;23.30
78028;DHT22;67235;45.638;11.714;2023-03-16T15:37:59;16.10;24.70
78028;DHT22;67235;45.638;11.714;2023-03-16T15:40:31;15.90;24.40
78028;DHT22;67235;45.638;11.714;2023-03-16T15:43:18;15.90;25.20
78028;DHT22;67235;45.638;11.714;2023-03-16T15:45:55;16.00;25.20
78028;DHT22;67235;45.638;11.714;2023-03-16T15:48:46;16.00;28.70
78028;DHT22;67235;45.638;11.714;2023-03-16T15:51:20;15.80;24.40
78028;DHT22;67235;45.638;11.714;2023-03-16T15:53:53;15.60;26.50
78028;DHT22;67235;45.638;11.714;2023-03-16T15:56:24;15.60;26.40
78028;DHT22;67235;45.638;11.714;2023-03-16T15:58:55;15.50;25.90
78028;DHT22;67235;45.638;11.714;2023-03-16T16:01:27;15.50;24.30
78028;DHT22;67235;45.638;11.714;2023-03-16T16:03:55;15.30;25.70
78028;DHT22;67235;45.638;11.714;2023-03-16T16:06:21;15.40;29.10
78028;DHT22;67235;45.638;11.714;2023-03-16T16:08:48;15.10;32.20
78028;DHT22;67235;45.638;11.714;2023-03-16T16:11:25;15.00;31.10
78028;DHT22;67235;45.638;11.714;2023-03-16T16:13:56;15.00;31.20
78028;DHT22;67235;45.638;11.714;2023-03-16T16:16:25;14.80;32.90
78028;DHT22;67235;45.638;11.714;2023-03-16T16:18:52;14.70;33.90
78028;DHT22;67235;45.638;11.714;2023-03-16T16:21:20;14.50;34.50
78028;DHT22;67235;45.638;11.714;2023-03-16T16:23:47;14.30;35.10
78028;DHT22;67235;45.638;11.714;2023-03-16T16:26:37;14.40;33.80
78028;DHT22;67235;45.638;11.714;2023-03-16T16:29:21;14.50;34.60
78028;DHT22;67235;45.638;11.714;2023-03-16T16:31:47;14.20;33.60
78028;DHT22;67235;45.638;11.714;2023-03-16T16:34:20;14.20;34.10
78028;DHT22;67235;45.638;11.714;2023-03-16T16:36:47;14.10;35.50
78028;DHT22;67235;45.638;11.714;2023-03-16T16:39:13;14.00;36.30
78028;DHT22;67235;45.638;11.714;2023-03-16T16:41:39;14.00;36.40
78028;DHT22;67235;45.638;11.714;2023-03-16T16:44:17;14.00;34.50
78028;DHT22;67235;45.638;11.714;2023-03-16T16:46:45;13.90;35.80